MSC Vienna — A8CI9 — position and weather

sailwx.info

Track history (hours):
 
Tides and Currents Weather Stations Pressure Air Temp Water Temp Dewpoint Dewpoint Depression Visibility Wind Speed Wind Dir Waves Ship Positions

MSC Vienna

Last reported at 2015-Jun-27 19:27 UTC. Time now 2015-Jul-07 15:23 UTC.
Position N 37°31' E 016°03'.
Warning: this ship's position is 9 days out of date.

Length 260.1 m; beam 32.2 m; draft 12 m.

Type: Ship (hazmat cat A). MMSI: 636090654.

Date/timePositionNaut miles runAvg speedWind from/ knotsBaromVisibWave heightAir tempDewpointWater temp
2015-Jun-27 19:27N 37°31' E 016°03'1820.0
2015-Jun-27 18:34N 37°43' E 015°47'2019.8
2015-Jun-27 17:33N 38°00' E 015°35'1616.0
2015-Jun-27 16:33N 38°16' E 015°40'1515.4
2015-Jun-27 15:33N 38°27' E 015°54'1 1.0
2015-Jun-27 14:33N 38°27' E 015°54'0 0.0
2015-Jun-27 13:30N 38°27' E 015°54'0 0.0
2015-Jun-27 12:18N 38°27' E 015°54'0 0.0
2015-Jun-27 11:33N 38°27' E 015°54'0 0.0
2015-Jun-27 10:33N 38°27' E 015°54'0 0.0
2015-Jun-27 09:15N 38°27' E 015°54'0 0.0
2015-Jun-27 08:21N 38°27' E 015°54'0 0.0
2015-Jun-27 07:33N 38°27' E 015°54'0 0.0
2015-Jun-27 06:27N 38°27' E 015°54'0 0.0
2015-Jun-27 05:30N 38°27' E 015°54'0 0.0
2015-Jun-27 04:33N 38°27' E 015°54'0 0.0
2015-Jun-27 03:27N 38°27' E 015°54'2 1.7
2015-Jun-27 02:33N 38°27' E 015°52'6 5.9
2015-Jun-27 01:33N 38°32' E 015°48'1717.2
2015-Jun-27 00:33N 38°46' E 015°36'1717.4
2015-Jun-26 23:33N 39°01' E 015°24'9117.8
2015-Jun-26 18:28N 40°17' E 014°20'1617.4
2015-Jun-26 17:33N 40°30' E 014°08'1615.6
2015-Jun-26 16:33N 40°45' E 014°15'6 5.7
2015-Jun-26 15:32N 40°50' E 014°17'0 0.0
2015-Jun-26 10:33N 40°50' E 014°17'1 0.2
2015-Jun-26 07:20N 40°50' E 014°17'2 2.7
2015-Jun-26 06:28N 40°48' E 014°17'4 4.3
2015-Jun-26 05:33N 40°45' E 014°14'1212.4
2015-Jun-26 04:33N 40°38' E 013°60'1312.9
2015-Jun-26 03:33N 40°38' E 013°43'1313.1
2015-Jun-26 02:33N 40°40' E 013°26'1212.5
2015-Jun-26 01:33N 40°43' E 013°10'1312.4
2015-Jun-26 00:31N 40°47' E 012°54'2812.3
2015-Jun-25 22:15N 41°03' E 012°23'3512.5
2015-Jun-25 19:26N 41°23' E 011°44'13412.1
2015-Jun-25 08:22N 42°60' E 009°39'1012.3
2015-Jun-25 07:34N 43°09' E 009°41'1212.4
2015-Jun-25 06:33N 43°22' E 009°43'1212.5
2015-Jun-25 05:33N 43°34' E 009°45'1312.6
2015-Jun-25 04:33N 43°47' E 009°48'1312.6
2015-Jun-25 03:33N 43°59' E 009°52'8 7.8
2015-Jun-25 02:33N 44°06' E 009°51'0 0.0
2015-Jun-25 01:33N 44°06' E 009°51'0 0.0
2015-Jun-25 00:30N 44°06' E 009°51'0 0.0
2015-Jun-24 23:33N 44°06' E 009°51'0 0.0
2015-Jun-24 22:33N 44°06' E 009°51'0 0.0
2015-Jun-24 21:33N 44°06' E 009°51'0 0.0
2015-Jun-24 20:33N 44°06' E 009°51'0 0.0
2015-Jun-24 19:33N 44°06' E 009°51'0 0.0
2015-Jun-24 18:33N 44°06' E 009°51'0 0.0
2015-Jun-24 17:33N 44°06' E 009°51'0 0.0
2015-Jun-24 16:33N 44°06' E 009°51'0 0.0
2015-Jun-24 15:33N 44°06' E 009°51'0 0.0
2015-Jun-24 14:33N 44°06' E 009°51'0 0.0
2015-Jun-24 13:30N 44°06' E 009°51'0 0.0
2015-Jun-24 12:33N 44°06' E 009°51'0 0.0
2015-Jun-24 11:30N 44°06' E 009°51'0 0.0
2015-Jun-24 10:33N 44°06' E 009°51'0 0.0
2015-Jun-24 09:33N 44°06' E 009°51'0 0.0
2015-Jun-24 08:33N 44°06' E 009°51'0 0.0
2015-Jun-24 07:33N 44°06' E 009°51'0 0.0
2015-Jun-24 06:33N 44°06' E 009°51'0 0.0
2015-Jun-24 05:33N 44°06' E 009°51'0 0.0
2015-Jun-24 04:33N 44°06' E 009°51'2 2.4
2015-Jun-24 03:33N 44°04' E 009°51'6 6.0
2015-Jun-24 02:33N 43°58' E 009°52'0 0.0
2015-Jun-24 01:33N 43°58' E 009°52'0 0.0
2015-Jun-24 00:33N 43°58' E 009°52'0 0.0
2015-Jun-23 23:33N 43°58' E 009°52'0 0.0
2015-Jun-23 22:33N 43°58' E 009°52'0 0.1
2015-Jun-23 21:33N 43°58' E 009°52'0 0.2
2015-Jun-23 20:34N 43°58' E 009°52'1212.5
2015-Jun-23 19:34N 43°53' E 009°36'613.2
2015-Jun-23 19:06N 43°50' E 009°29'203 8.6
2015-Jun-22 19:32N 43°25' E 004°50'0 0.0
2015-Jun-22 18:32N 43°25' E 004°50'0 0.0
2015-Jun-22 17:29N 43°25' E 004°50'0 0.0
2015-Jun-22 16:32N 43°25' E 004°50'0 0.0
2015-Jun-22 15:32N 43°25' E 004°50'0 0.1
2015-Jun-22 14:32N 43°25' E 004°50'0 0.0
2015-Jun-22 13:32N 43°25' E 004°50'0 0.0
2015-Jun-22 12:32N 43°25' E 004°50'0 0.0
2015-Jun-22 11:32N 43°25' E 004°50'0 0.0
2015-Jun-22 10:32N 43°25' E 004°50'0 0.0
2015-Jun-22 09:32N 43°25' E 004°50'0 0.0
2015-Jun-22 08:32N 43°25' E 004°50'0 0.0
2015-Jun-22 07:32N 43°25' E 004°50'0 0.0
2015-Jun-22 06:32N 43°25' E 004°50'0 0.0
2015-Jun-22 05:32N 43°25' E 004°50'0 0.0
2015-Jun-22 04:32N 43°25' E 004°50'0 0.0
2015-Jun-22 03:32N 43°25' E 004°50'0 0.0
2015-Jun-22 02:32N 43°25' E 004°50'0 0.0
2015-Jun-22 01:32N 43°25' E 004°50'0 0.0
2015-Jun-22 00:32N 43°25' E 004°50'0 0.0
2015-Jun-21 23:32N 43°25' E 004°50'0 0.0
2015-Jun-21 22:32N 43°25' E 004°50'0 0.0
2015-Jun-21 21:32N 43°25' E 004°50'0 0.0
2015-Jun-21 20:32N 43°25' E 004°50'4 4.2
2015-Jun-21 19:33N 43°24' E 004°56'1413.8
2015-Jun-21 18:33N 43°11' E 005°03'3 2.9
2015-Jun-21 17:34N 43°08' E 005°02'1 0.7
2015-Jun-21 16:33N 43°08' E 005°01'1 0.9
2015-Jun-21 15:34N 43°08' E 004°60'9 9.0
2015-Jun-21 14:33N 43°01' E 004°52'1414.4
2015-Jun-21 13:33N 42°49' E 004°40'1414.3
2015-Jun-21 12:33N 42°39' E 004°27'1514.7
2015-Jun-21 11:33N 42°27' E 004°16'1914.6
2015-Jun-21 10:17N 42°12' E 004°00'5514.7
2015-Jun-21 06:33N 41°27' E 003°17'1514.7
2015-Jun-21 05:33N 41°15' E 003°06'1514.8
2015-Jun-21 04:33N 41°03' E 002°54'1514.8
2015-Jun-21 03:33N 40°51' E 002°43'1514.6
2015-Jun-21 02:33N 40°39' E 002°32'1414.6
2015-Jun-21 01:33N 40°28' E 002°21'1414.3
2015-Jun-21 00:33N 40°16' E 002°10'1414.1
2015-Jun-20 23:33N 40°05' E 001°59'1514.7
2015-Jun-20 22:33N 39°53' E 001°48'1515.1
2015-Jun-20 21:33N 39°40' E 001°36'1515.2
2015-Jun-20 20:33N 39°28' E 001°24'1915.0
2015-Jun-20 19:16N 39°12' E 001°11'1114.7
2015-Jun-20 18:33N 39°04' E 001°03'1514.7
2015-Jun-20 17:30N 38°51' E 000°51'1515.0
2015-Jun-20 16:31N 38°39' E 000°40'3415.0
2015-Jun-20 14:13N 38°11' E 000°15'1014.7
2015-Jun-20 13:33N 38°03' E 000°07'1514.3
2015-Jun-20 12:30N 37°51' W 000°03'1314.1
2015-Jun-20 11:33N 37°40' W 000°13'1413.7
2015-Jun-20 10:34N 37°29' W 000°23'1413.8
2015-Jun-20 09:33N 37°17' W 000°33'1413.6
2015-Jun-20 08:33N 37°07' W 000°45'2019.5
2015-Jun-20 07:33N 36°57' W 001°05'1917.1
2015-Jun-20 06:26N 36°46' W 001°25'1314.0
2015-Jun-20 05:31N 36°39' W 001°39'1513.7
2015-Jun-20 04:27N 36°31' W 001°54'1413.8
2015-Jun-20 03:27N 36°23' W 002°08'1814.3
2015-Jun-20 02:10N 36°20' W 002°30'1014.8
2015-Jun-20 01:31N 36°18' W 002°42'1614.2
2015-Jun-20 00:24N 36°16' W 003°02'10615.4
2015-Jun-19 17:32N 36°00' W 005°11'11814.5
2015-Jun-19 09:24N 36°13' W 007°36'1416.7
2015-Jun-19 08:33N 36°17' W 007°53'3717.0
2015-Jun-19 06:21N 36°25' W 008°38'4516.2
2015-Jun-19 03:33N 36°43' W 009°30'1615.9
2015-Jun-19 02:33N 36°58' W 009°37'1717.1
2015-Jun-19 01:33N 37°12' W 009°25'1717.1
2015-Jun-19 00:33N 37°27' W 009°14'1717.0
2015-Jun-18 23:33N 37°41' W 009°02'1716.4
2015-Jun-18 22:33N 37°55' W 008°50'1 1.5
2015-Jun-18 21:33N 37°56' W 008°51'0 0.0
2015-Jun-18 20:33N 37°56' W 008°51'0 0.0
2015-Jun-18 19:33N 37°56' W 008°51'0 0.0
2015-Jun-18 18:24N 37°56' W 008°51'0 0.0
2015-Jun-18 17:33N 37°56' W 008°51'0 0.0
2015-Jun-18 16:33N 37°56' W 008°51'0 0.0
2015-Jun-18 15:33N 37°56' W 008°51'0 0.0
2015-Jun-18 14:33N 37°56' W 008°51'0 0.0
2015-Jun-18 13:33N 37°56' W 008°51'0 0.0
2015-Jun-18 12:33N 37°56' W 008°51'0 0.0
2015-Jun-18 11:33N 37°56' W 008°51'0 0.0
2015-Jun-18 10:33N 37°56' W 008°51'0 0.0
2015-Jun-18 09:33N 37°56' W 008°51'0 0.0
2015-Jun-18 08:33N 37°56' W 008°51'0 0.0
2015-Jun-18 07:33N 37°56' W 008°51'0 0.0
2015-Jun-18 06:30N 37°56' W 008°51'0 0.0
2015-Jun-18 05:33N 37°56' W 008°51'0 0.2
2015-Jun-18 04:33N 37°56' W 008°51'8 8.4
2015-Jun-18 03:33N 37°48' W 008°54'1817.9
2015-Jun-18 02:33N 37°31' W 009°03'1817.9
2015-Jun-18 01:33N 37°15' W 009°12'1717.1
2015-Jun-18 00:33N 36°59' W 009°20'1716.6
2015-Jun-17 23:33N 36°45' W 009°09'1817.6
2015-Jun-17 22:33N 36°40' W 008°48'1817.9
2015-Jun-17 21:33N 36°33' W 008°27'1917.6
2015-Jun-17 20:29N 36°28' W 008°05'  
Track history (hours):
 
Tides and Currents Weather Stations Pressure Air Temp Water Temp Dewpoint Dewpoint Depression Visibility Wind Speed Wind Dir Waves Ship Positions

MSC Vienna

Last reported at 2015-Jun-27 19:27 UTC. Time now 2015-Jul-07 15:23 UTC.
Position N 37°31' E 016°03'.
Warning: this ship's position is 9 days out of date.

Length 260.1 m; beam 32.2 m; draft 12 m.

Type: Ship (hazmat cat A). MMSI: 636090654.

Date/timePositionNaut miles runAvg speedWind from/ knotsBaromVisibWave heightAir tempDewpointWater temp
2015-Jun-27 19:27N 37°31' E 016°03'1820.0
2015-Jun-27 18:34N 37°43' E 015°47'2019.8
2015-Jun-27 17:33N 38°00' E 015°35'1616.0
2015-Jun-27 16:33N 38°16' E 015°40'1515.4
2015-Jun-27 15:33N 38°27' E 015°54'1 1.0
2015-Jun-27 14:33N 38°27' E 015°54'0 0.0
2015-Jun-27 13:30N 38°27' E 015°54'0 0.0
2015-Jun-27 12:18N 38°27' E 015°54'0 0.0
2015-Jun-27 11:33N 38°27' E 015°54'0 0.0
2015-Jun-27 10:33N 38°27' E 015°54'0 0.0
2015-Jun-27 09:15N 38°27' E 015°54'0 0.0
2015-Jun-27 08:21N 38°27' E 015°54'0 0.0
2015-Jun-27 07:33N 38°27' E 015°54'0 0.0
2015-Jun-27 06:27N 38°27' E 015°54'0 0.0
2015-Jun-27 05:30N 38°27' E 015°54'0 0.0
2015-Jun-27 04:33N 38°27' E 015°54'0 0.0
2015-Jun-27 03:27N 38°27' E 015°54'2 1.7
2015-Jun-27 02:33N 38°27' E 015°52'6 5.9
2015-Jun-27 01:33N 38°32' E 015°48'1717.2
2015-Jun-27 00:33N 38°46' E 015°36'1717.4
2015-Jun-26 23:33N 39°01' E 015°24'9117.8
2015-Jun-26 18:28N 40°17' E 014°20'1617.4
2015-Jun-26 17:33N 40°30' E 014°08'1615.6
2015-Jun-26 16:33N 40°45' E 014°15'6 5.7
2015-Jun-26 15:32N 40°50' E 014°17'0 0.0
2015-Jun-26 10:33N 40°50' E 014°17'1 0.2
2015-Jun-26 07:20N 40°50' E 014°17'2 2.7
2015-Jun-26 06:28N 40°48' E 014°17'4 4.3
2015-Jun-26 05:33N 40°45' E 014°14'1212.4
2015-Jun-26 04:33N 40°38' E 013°60'1312.9
2015-Jun-26 03:33N 40°38' E 013°43'1313.1
2015-Jun-26 02:33N 40°40' E 013°26'1212.5
2015-Jun-26 01:33N 40°43' E 013°10'1312.4
2015-Jun-26 00:31N 40°47' E 012°54'2812.3
2015-Jun-25 22:15N 41°03' E 012°23'3512.5
2015-Jun-25 19:26N 41°23' E 011°44'13412.1
2015-Jun-25 08:22N 42°60' E 009°39'1012.3
2015-Jun-25 07:34N 43°09' E 009°41'1212.4
2015-Jun-25 06:33N 43°22' E 009°43'1212.5
2015-Jun-25 05:33N 43°34' E 009°45'1312.6
2015-Jun-25 04:33N 43°47' E 009°48'1312.6
2015-Jun-25 03:33N 43°59' E 009°52'8 7.8
2015-Jun-25 02:33N 44°06' E 009°51'0 0.0
2015-Jun-25 01:33N 44°06' E 009°51'0 0.0
2015-Jun-25 00:30N 44°06' E 009°51'0 0.0
2015-Jun-24 23:33N 44°06' E 009°51'0 0.0
2015-Jun-24 22:33N 44°06' E 009°51'0 0.0
2015-Jun-24 21:33N 44°06' E 009°51'0 0.0
2015-Jun-24 20:33N 44°06' E 009°51'0 0.0
2015-Jun-24 19:33N 44°06' E 009°51'0 0.0
2015-Jun-24 18:33N 44°06' E 009°51'0 0.0
2015-Jun-24 17:33N 44°06' E 009°51'0 0.0
2015-Jun-24 16:33N 44°06' E 009°51'0 0.0
2015-Jun-24 15:33N 44°06' E 009°51'0 0.0
2015-Jun-24 14:33N 44°06' E 009°51'0 0.0
2015-Jun-24 13:30N 44°06' E 009°51'0 0.0
2015-Jun-24 12:33N 44°06' E 009°51'0 0.0
2015-Jun-24 11:30N 44°06' E 009°51'0 0.0
2015-Jun-24 10:33N 44°06' E 009°51'0 0.0
2015-Jun-24 09:33N 44°06' E 009°51'0 0.0
2015-Jun-24 08:33N 44°06' E 009°51'0 0.0
2015-Jun-24 07:33N 44°06' E 009°51'0 0.0
2015-Jun-24 06:33N 44°06' E 009°51'0 0.0
2015-Jun-24 05:33N 44°06' E 009°51'0 0.0
2015-Jun-24 04:33N 44°06' E 009°51'2 2.4
2015-Jun-24 03:33N 44°04' E 009°51'6 6.0
2015-Jun-24 02:33N 43°58' E 009°52'0 0.0
2015-Jun-24 01:33N 43°58' E 009°52'0 0.0
2015-Jun-24 00:33N 43°58' E 009°52'0 0.0
2015-Jun-23 23:33N 43°58' E 009°52'0 0.0
2015-Jun-23 22:33N 43°58' E 009°52'0 0.1
2015-Jun-23 21:33N 43°58' E 009°52'0 0.2
2015-Jun-23 20:34N 43°58' E 009°52'1212.5
2015-Jun-23 19:34N 43°53' E 009°36'613.2
2015-Jun-23 19:06N 43°50' E 009°29'203 8.6
2015-Jun-22 19:32N 43°25' E 004°50'0 0.0
2015-Jun-22 18:32N 43°25' E 004°50'0 0.0
2015-Jun-22 17:29N 43°25' E 004°50'0 0.0
2015-Jun-22 16:32N 43°25' E 004°50'0 0.0
2015-Jun-22 15:32N 43°25' E 004°50'0 0.1
2015-Jun-22 14:32N 43°25' E 004°50'0 0.0
2015-Jun-22 13:32N 43°25' E 004°50'0 0.0
2015-Jun-22 12:32N 43°25' E 004°50'0 0.0
2015-Jun-22 11:32N 43°25' E 004°50'0 0.0
2015-Jun-22 10:32N 43°25' E 004°50'0 0.0
2015-Jun-22 09:32N 43°25' E 004°50'0 0.0
2015-Jun-22 08:32N 43°25' E 004°50'0 0.0
2015-Jun-22 07:32N 43°25' E 004°50'0 0.0
2015-Jun-22 06:32N 43°25' E 004°50'0 0.0
2015-Jun-22 05:32N 43°25' E 004°50'0 0.0
2015-Jun-22 04:32N 43°25' E 004°50'0 0.0
2015-Jun-22 03:32N 43°25' E 004°50'0 0.0
2015-Jun-22 02:32N 43°25' E 004°50'0 0.0
2015-Jun-22 01:32N 43°25' E 004°50'0 0.0
2015-Jun-22 00:32N 43°25' E 004°50'0 0.0
2015-Jun-21 23:32N 43°25' E 004°50'0 0.0
2015-Jun-21 22:32N 43°25' E 004°50'0 0.0
2015-Jun-21 21:32N 43°25' E 004°50'0 0.0
2015-Jun-21 20:32N 43°25' E 004°50'4 4.2
2015-Jun-21 19:33N 43°24' E 004°56'1413.8
2015-Jun-21 18:33N 43°11' E 005°03'3 2.9
2015-Jun-21 17:34N 43°08' E 005°02'1 0.7
2015-Jun-21 16:33N 43°08' E 005°01'1 0.9
2015-Jun-21 15:34N 43°08' E 004°60'9 9.0
2015-Jun-21 14:33N 43°01' E 004°52'1414.4
2015-Jun-21 13:33N 42°49' E 004°40'1414.3
2015-Jun-21 12:33N 42°39' E 004°27'1514.7
2015-Jun-21 11:33N 42°27' E 004°16'1914.6
2015-Jun-21 10:17N 42°12' E 004°00'5514.7
2015-Jun-21 06:33N 41°27' E 003°17'1514.7
2015-Jun-21 05:33N 41°15' E 003°06'1514.8
2015-Jun-21 04:33N 41°03' E 002°54'1514.8
2015-Jun-21 03:33N 40°51' E 002°43'1514.6
2015-Jun-21 02:33N 40°39' E 002°32'1414.6
2015-Jun-21 01:33N 40°28' E 002°21'1414.3
2015-Jun-21 00:33N 40°16' E 002°10'1414.1
2015-Jun-20 23:33N 40°05' E 001°59'1514.7
2015-Jun-20 22:33N 39°53' E 001°48'1515.1
2015-Jun-20 21:33N 39°40' E 001°36'1515.2
2015-Jun-20 20:33N 39°28' E 001°24'1915.0
2015-Jun-20 19:16N 39°12' E 001°11'1114.7
2015-Jun-20 18:33N 39°04' E 001°03'1514.7
2015-Jun-20 17:30N 38°51' E 000°51'1515.0
2015-Jun-20 16:31N 38°39' E 000°40'3415.0
2015-Jun-20 14:13N 38°11' E 000°15'1014.7
2015-Jun-20 13:33N 38°03' E 000°07'1514.3
2015-Jun-20 12:30N 37°51' W 000°03'1314.1
2015-Jun-20 11:33N 37°40' W 000°13'1413.7
2015-Jun-20 10:34N 37°29' W 000°23'1413.8
2015-Jun-20 09:33N 37°17' W 000°33'1413.6
2015-Jun-20 08:33N 37°07' W 000°45'2019.5
2015-Jun-20 07:33N 36°57' W 001°05'1917.1
2015-Jun-20 06:26N 36°46' W 001°25'1314.0
2015-Jun-20 05:31N 36°39' W 001°39'1513.7
2015-Jun-20 04:27N 36°31' W 001°54'1413.8
2015-Jun-20 03:27N 36°23' W 002°08'1814.3
2015-Jun-20 02:10N 36°20' W 002°30'1014.8
2015-Jun-20 01:31N 36°18' W 002°42'1614.2
2015-Jun-20 00:24N 36°16' W 003°02'10615.4
2015-Jun-19 17:32N 36°00' W 005°11'11814.5
2015-Jun-19 09:24N 36°13' W 007°36'1416.7
2015-Jun-19 08:33N 36°17' W 007°53'3717.0
2015-Jun-19 06:21N 36°25' W 008°38'4516.2
2015-Jun-19 03:33N 36°43' W 009°30'1615.9
2015-Jun-19 02:33N 36°58' W 009°37'1717.1
2015-Jun-19 01:33N 37°12' W 009°25'1717.1
2015-Jun-19 00:33N 37°27' W 009°14'1717.0
2015-Jun-18 23:33N 37°41' W 009°02'1716.4
2015-Jun-18 22:33N 37°55' W 008°50'1 1.5
2015-Jun-18 21:33N 37°56' W 008°51'0 0.0
2015-Jun-18 20:33N 37°56' W 008°51'0 0.0
2015-Jun-18 19:33N 37°56' W 008°51'0 0.0
2015-Jun-18 18:24N 37°56' W 008°51'0 0.0
2015-Jun-18 17:33N 37°56' W 008°51'0 0.0
2015-Jun-18 16:33N 37°56' W 008°51'0 0.0
2015-Jun-18 15:33N 37°56' W 008°51'0 0.0
2015-Jun-18 14:33N 37°56' W 008°51'0 0.0
2015-Jun-18 13:33N 37°56' W 008°51'0 0.0
2015-Jun-18 12:33N 37°56' W 008°51'0 0.0
2015-Jun-18 11:33N 37°56' W 008°51'0 0.0
2015-Jun-18 10:33N 37°56' W 008°51'0 0.0
2015-Jun-18 09:33N 37°56' W 008°51'0 0.0
2015-Jun-18 08:33N 37°56' W 008°51'0 0.0
2015-Jun-18 07:33N 37°56' W 008°51'0 0.0
2015-Jun-18 06:30N 37°56' W 008°51'0 0.0
2015-Jun-18 05:33N 37°56' W 008°51'0 0.2
2015-Jun-18 04:33N 37°56' W 008°51'8 8.4
2015-Jun-18 03:33N 37°48' W 008°54'1817.9
2015-Jun-18 02:33N 37°31' W 009°03'1817.9
2015-Jun-18 01:33N 37°15' W 009°12'1717.1
2015-Jun-18 00:33N 36°59' W 009°20'1716.6
2015-Jun-17 23:33N 36°45' W 009°09'1817.6
2015-Jun-17 22:33N 36°40' W 008°48'1817.9
2015-Jun-17 21:33N 36°33' W 008°27'1917.6
2015-Jun-17 20:29N 36°28' W 008°05'  

Dump ship's entire track history